Time,TemperatureF,DewpointF,PressureIn,WindDirection,WindDirectionDegrees,WindSpeedMPH,WindSpeedGustMPH,Humidity,HourlyPrecipIn,Conditions,Clouds,dailyrainin,SoftwareType,DateUTC
2013-03-09 00:00:00,39.0,-99.9,-100.00,SSE,152,12.0,17.0,-999,0.00,,,0.00,,2013-03-09 06:00:00,
2013-03-09 00:32:00,39.0,-99.9,-100.00,SSE,152,12.0,17.0,-999,0.00,,,0.00,,2013-03-09 06:32:00,
2013-03-09 00:42:00,39.0,-99.9,-100.00,SSE,152,12.0,17.0,-999,0.00,,,0.00,,2013-03-09 06:42:00,
2013-03-09 00:52:00,39.0,-99.9,-100.00,SSE,152,12.0,17.0,-999,0.00,,,0.00,,2013-03-09 06:52:00,
2013-03-09 01:00:00,39.0,-99.9,-100.00,SSE,158,11.0,16.0,-999,0.00,,,0.00,,2013-03-09 07:00:00,
2013-03-09 01:32:00,39.0,-99.9,-100.00,SSE,158,11.0,16.0,-999,0.00,,,0.00,,2013-03-09 07:32:00,
2013-03-09 01:42:00,39.0,-99.9,-100.00,SSE,158,11.0,16.0,-999,0.00,,,0.00,,2013-03-09 07:42:00,
2013-03-09 01:52:00,39.0,-99.9,-100.00,SSE,158,11.0,16.0,-999,0.00,,,0.00,,2013-03-09 07:52:00,
2013-03-09 02:00:00,39.0,-99.9,-100.00,SSE,159,15.0,21.0,-999,0.00,,,0.00,,2013-03-09 08:00:00,
2013-03-09 02:42:00,39.0,-99.9,-100.00,SSE,159,15.0,21.0,-999,0.00,,,0.00,,2013-03-09 08:42:00,
2013-03-09 02:52:00,39.0,-99.9,-100.00,SSE,159,15.0,21.0,-999,0.00,,,0.00,,2013-03-09 08:52:00,
2013-03-09 03:00:00,38.0,-99.9,-100.00,SSE,162,17.0,22.0,-999,0.00,,,0.00,,2013-03-09 09:00:00,
2013-03-09 03:42:00,38.0,-99.9,-100.00,SSE,162,17.0,22.0,-999,0.00,,,0.00,,2013-03-09 09:42:00,
2013-03-09 03:52:00,38.0,-99.9,-100.00,SSE,162,17.0,22.0,-999,0.00,,,0.00,,2013-03-09 09:52:00,
2013-03-09 04:00:00,37.0,-99.9,-100.00,SSE,152,11.0,16.0,-999,0.15,,,0.15,,2013-03-09 10:00:00,
2013-03-09 04:42:00,37.0,-99.9,-100.00,SSE,152,11.0,16.0,-999,0.15,,,0.15,,2013-03-09 10:42:00,
2013-03-09 04:52:00,37.0,-99.9,-100.00,SSE,152,11.0,16.0,-999,0.15,,,0.15,,2013-03-09 10:52:00,
2013-03-09 05:00:00,37.0,-99.9,-100.00,SSE,153,11.0,14.0,-999,0.04,,,0.19,,2013-03-09 11:00:00,
2013-03-09 05:42:00,37.0,-99.9,-100.00,SSE,153,11.0,14.0,-999,0.04,,,0.19,,2013-03-09 11:42:00,
2013-03-09 05:52:00,37.0,-99.9,-100.00,SSE,153,11.0,14.0,-999,0.04,,,0.19,,2013-03-09 11:52:00,
2013-03-09 06:00:00,38.0,-99.9,-100.00,SSE,152,11.0,14.0,-999,0.00,,,0.19,,2013-03-09 12:00:00,
2013-03-09 06:42:00,38.0,-99.9,-100.00,SSE,152,11.0,14.0,-999,0.00,,,0.19,,2013-03-09 12:42:00,
2013-03-09 06:53:00,38.0,-99.9,-100.00,SSE,152,11.0,14.0,-999,0.00,,,0.19,,2013-03-09 12:53:00,
2013-03-09 07:00:00,38.0,-99.9,-100.00,SSE,157,14.0,19.0,-999,0.00,,,0.19,,2013-03-09 13:00:00,
2013-03-09 07:42:00,38.0,-99.9,-100.00,SSE,157,14.0,19.0,-999,0.00,,,0.19,,2013-03-09 13:42:00,
2013-03-09 07:52:00,38.0,-99.9,-100.00,SSE,157,14.0,19.0,-999,0.00,,,0.19,,2013-03-09 13:52:00,
2013-03-09 08:00:00,38.0,-99.9,-100.00,SSE,157,14.0,19.0,-999,0.01,,,0.20,,2013-03-09 14:00:00,
2013-03-09 08:42:00,38.0,-99.9,-100.00,SSE,157,14.0,19.0,-999,0.01,,,0.20,,2013-03-09 14:42:00,
2013-03-09 08:52:00,38.0,-99.9,-100.00,SSE,157,14.0,19.0,-999,0.01,,,0.20,,2013-03-09 14:52:00,
2013-03-09 09:00:00,38.0,-99.9,-100.00,SSE,156,13.0,22.0,-999,0.00,,,0.20,,2013-03-09 15:00:00,
2013-03-09 09:42:00,38.0,-99.9,-100.00,SSE,156,13.0,22.0,-999,0.00,,,0.20,,2013-03-09 15:42:00,
2013-03-09 09:52:00,38.0,-99.9,-100.00,SSE,156,13.0,22.0,-999,0.00,,,0.20,,2013-03-09 15:52:00,
2013-03-09 10:00:00,38.0,-99.9,-100.00,SSE,157,14.0,25.0,-999,0.00,,,0.20,,2013-03-09 16:00:00,
2013-03-09 10:32:00,38.0,-99.9,-100.00,SSE,157,14.0,25.0,-999,0.00,,,0.20,,2013-03-09 16:32:00,
2013-03-09 10:42:00,38.0,-99.9,-100.00,SSE,157,14.0,25.0,-999,0.00,,,0.20,,2013-03-09 16:42:00,
2013-03-09 10:52:00,38.0,-99.9,-100.00,SSE,157,14.0,25.0,-999,0.00,,,0.20,,2013-03-09 16:52:00,
2013-03-09 11:00:00,38.0,-99.9,-100.00,SSE,159,15.0,19.0,-999,0.02,,,0.22,,2013-03-09 17:00:00,
2013-03-09 11:42:00,38.0,-99.9,-100.00,SSE,159,15.0,19.0,-999,0.02,,,0.22,,2013-03-09 17:42:00,
2013-03-09 11:52:00,38.0,-99.9,-100.00,SSE,159,15.0,19.0,-999,0.02,,,0.22,,2013-03-09 17:52:00,
2013-03-09 12:00:00,38.0,-99.9,-100.00,SSE,156,13.0,23.0,-999,0.20,,,0.42,,2013-03-09 18:00:00,
2013-03-09 12:32:00,38.0,-99.9,-100.00,SSE,156,13.0,23.0,-999,0.20,,,0.42,,2013-03-09 18:32:00,
2013-03-09 12:42:00,38.0,-99.9,-100.00,SSE,156,13.0,23.0,-999,0.20,,,0.42,,2013-03-09 18:42:00,
2013-03-09 12:52:00,38.0,-99.9,-100.00,SSE,156,13.0,23.0,-999,0.20,,,0.42,,2013-03-09 18:52:00,
2013-03-09 13:00:00,38.0,-99.9,-100.00,SSE,160,14.0,25.0,-999,0.09,,,0.51,,2013-03-09 19:00:00,
2013-03-09 13:42:00,38.0,-99.9,-100.00,SSE,160,14.0,25.0,-999,0.09,,,0.51,,2013-03-09 19:42:00,
2013-03-09 13:52:00,38.0,-99.9,-100.00,SSE,160,14.0,25.0,-999,0.09,,,0.51,,2013-03-09 19:52:00,
2013-03-09 14:00:00,38.0,-99.9,-100.00,SSE,156,13.0,17.0,-999,0.04,,,0.55,,2013-03-09 20:00:00,
2013-03-09 14:42:00,38.0,-99.9,-100.00,SSE,156,13.0,17.0,-999,0.04,,,0.55,,2013-03-09 20:42:00,
2013-03-09 14:53:00,38.0,-99.9,-100.00,SSE,156,13.0,17.0,-999,0.04,,,0.55,,2013-03-09 20:53:00,
2013-03-09 15:00:00,39.0,-99.9,-100.00,SSE,158,15.0,22.0,-999,0.15,,,0.70,,2013-03-09 21:00:00,
2013-03-09 15:42:00,39.0,-99.9,-100.00,SSE,158,15.0,22.0,-999,0.15,,,0.70,,2013-03-09 21:42:00,
2013-03-09 15:52:00,39.0,-99.9,-100.00,SSE,158,15.0,22.0,-999,0.15,,,0.70,,2013-03-09 21:52:00,
2013-03-09 16:00:00,40.0,-99.9,-100.00,SSE,160,14.0,20.0,-999,0.11,,,0.81,,2013-03-09 22:00:00,
2013-03-09 16:42:00,40.0,-99.9,-100.00,SSE,160,14.0,20.0,-999,0.11,,,0.81,,2013-03-09 22:42:00,
2013-03-09 16:52:00,40.0,-99.9,-100.00,SSE,160,14.0,20.0,-999,0.11,,,0.81,,2013-03-09 22:52:00,
2013-03-09 17:00:00,40.0,-99.9,-100.00,SSE,166,12.0,21.0,-999,0.12,,,0.93,,2013-03-09 23:00:00,
2013-03-09 17:30:00,40.0,-99.9,-100.00,SSE,158,4.0,16.0,-999,0.05,,,0.95,,2013-03-09 23:30:00,
2013-03-09 17:42:00,40.0,-99.9,-100.00,SSE,166,12.0,21.0,-999,0.12,,,0.93,,2013-03-09 23:42:00,
2013-03-09 17:52:00,40.0,-99.9,-100.00,SSE,166,12.0,21.0,-999,0.12,,,0.93,,2013-03-09 23:52:00,
2013-03-09 18:00:00,40.0,-99.9,-100.00,SSE,160,4.0,9.0,-999,0.05,,,0.98,,2013-03-10 00:00:00,
2013-03-09 18:43:00,40.0,-99.9,-100.00,SSE,160,4.0,9.0,-999,0.05,,,0.98,,2013-03-10 00:43:00,
2013-03-09 18:52:00,40.0,-99.9,-100.00,SSE,160,4.0,9.0,-999,0.05,,,0.98,,2013-03-10 00:52:00,
2013-03-09 19:00:00,40.0,-99.9,-100.00,ESE,123,4.0,7.0,-999,0.01,,,-99.99,,2013-03-10 01:00:00,
2013-03-09 19:32:00,40.0,-99.9,-100.00,ESE,123,4.0,7.0,-999,0.01,,,-99.99,,2013-03-10 01:32:00,
2013-03-09 19:42:00,40.0,-99.9,-100.00,ESE,123,4.0,7.0,-999,0.01,,,-99.99,,2013-03-10 01:42:00,
2013-03-09 19:52:00,40.0,-99.9,-100.00,ESE,123,4.0,7.0,-999,0.01,,,-99.99,,2013-03-10 01:52:00,
2013-03-09 20:00:00,41.0,-99.9,-100.00,SE,145,9.0,14.0,-999,0.06,,,1.05,,2013-03-10 02:00:00,
2013-03-09 20:42:00,41.0,-99.9,-100.00,SE,145,9.0,14.0,-999,0.06,,,1.05,,2013-03-10 02:42:00,
2013-03-09 20:52:00,41.0,-99.9,-100.00,SE,145,9.0,14.0,-999,0.06,,,1.05,,2013-03-10 02:52:00,
2013-03-09 21:00:00,42.0,-99.9,-100.00,SSE,156,13.0,22.0,-999,0.03,,,1.08,,2013-03-10 03:00:00,
2013-03-09 21:52:00,42.0,-99.9,-100.00,SSE,156,13.0,22.0,-999,0.03,,,1.08,,2013-03-10 03:52:00,
2013-03-09 22:00:00,43.0,-99.9,-100.00,SSE,159,17.0,28.0,-999,0.01,,,1.09,,2013-03-10 04:00:00,
2013-03-09 22:32:00,43.0,-99.9,-100.00,SSE,159,17.0,28.0,-999,0.01,,,1.09,,2013-03-10 04:32:00,
2013-03-09 22:42:00,43.0,-99.9,-100.00,SSE,159,17.0,28.0,-999,0.01,,,1.09,,2013-03-10 04:42:00,
2013-03-09 22:52:00,43.0,-99.9,-100.00,SSE,159,17.0,28.0,-999,0.01,,,1.09,,2013-03-10 04:52:00,
2013-03-09 23:00:00,43.0,-99.9,-100.00,North,351,4.0,9.0,-999,0.00,,,1.09,,2013-03-10 05:00:00,
2013-03-09 23:42:00,43.0,-99.9,-100.00,North,351,4.0,9.0,-999,0.00,,,1.09,,2013-03-10 05:42:00,
2013-03-09 23:52:00,43.0,-99.9,-100.00,North,351,4.0,9.0,-999,0.00,,,1.09,,2013-03-10 05:52:00,